CMA CGM Musca — 2CAC8 — position and weather

sailwx.info

Track history (hours):
 
Tides and Currents Weather Stations Pressure Air Temp Water Temp Dewpoint Dewpoint Depression Visibility Wind Speed Wind Dir Waves Ship Positions

CMA CGM Musca

Last reported at 2016-May-30 06:21 UTC. Time now 2016-May-30 08:44 UTC.
Position N 37°53' E 009°60'.

Length 347 m; draft 13.7 m.

Type: Ship (hazmat cat A). MMSI: 235070914.

Date/timePositionNaut miles runAvg speedWind from/ knotsBaromVisibWave heightAir tempDewpointWater temp
2016-May-30 06:21N 37°53' E 009°60'37720.0
2016-May-29 11:33N 42°59' E 005°10'2020.3
2016-May-29 10:33N 43°18' E 004°59'9 9.4
2016-May-29 09:33N 43°25' E 004°51'0 0.1
2016-May-29 08:33N 43°25' E 004°51'0 0.0
2016-May-29 07:33N 43°25' E 004°51'0 0.0
2016-May-29 06:32N 43°25' E 004°51'0 0.0
2016-May-29 05:32N 43°25' E 004°51'0 0.0
2016-May-29 04:23N 43°25' E 004°51'0 0.0
2016-May-29 03:28N 43°25' E 004°51'0 0.0
2016-May-29 02:31N 43°25' E 004°51'0 0.0
2016-May-29 01:33N 43°25' E 004°51'0 0.0
2016-May-29 00:33N 43°25' E 004°51'0 0.0
2016-May-28 22:26N 43°25' E 004°51'0 0.0
2016-May-28 16:11N 43°25' E 004°51'0 0.0
2016-May-28 15:29N 43°25' E 004°51'0 0.0
2016-May-28 14:31N 43°25' E 004°51'0 0.0
2016-May-28 12:16N 43°25' E 004°51'0 0.0
2016-May-28 11:33N 43°25' E 004°51'0 0.0
2016-May-28 10:33N 43°25' E 004°51'0 0.0
2016-May-28 09:32N 43°25' E 004°51'0 0.0
2016-May-28 08:32N 43°25' E 004°51'0 0.0
2016-May-28 07:31N 43°25' E 004°51'0 0.0
2016-May-28 06:31N 43°25' E 004°51'1 0.7
2016-May-28 05:33N 43°24' E 004°51'8 7.7
2016-May-28 04:33N 43°19' E 004°59'9 9.3
2016-May-28 03:33N 43°10' E 005°03'1513.6
2016-May-28 02:29N 42°57' E 004°55'14 1.1
2016-May-27 13:05N 43°02' E 004°37'2 1.0
2016-May-27 11:10N 43°01' E 004°39'0 0.6
2016-May-27 10:32N 43°01' E 004°39'1 0.3
2016-May-27 08:29N 43°00' E 004°39'0 0.3
2016-May-27 07:32N 42°60' E 004°39'0 0.1
2016-May-27 03:27N 42°60' E 004°38'3 0.7
2016-May-26 23:31N 43°00' E 004°42'1010.1
2016-May-26 22:30N 43°03' E 004°55'1312.6
2016-May-26 21:28N 42°52' E 004°46'3712.8
2016-May-26 18:33N 42°21' E 004°18'1313.0
2016-May-26 17:33N 42°10' E 004°08'1312.8
2016-May-26 16:33N 41°59' E 003°58'1312.8
2016-May-26 15:33N 41°51' E 003°45'1212.3
2016-May-26 14:33N 41°43' E 003°33'1312.1
2016-May-26 13:29N 41°36' E 003°19'1712.0
2016-May-26 12:05N 41°28' E 002°59'911.9
2016-May-26 11:22N 41°25' E 002°48'1012.1
2016-May-26 10:33N 41°22' E 002°36'1212.4
2016-May-26 09:33N 41°18' E 002°20'8 7.6
2016-May-26 08:32N 41°20' E 002°10'1 0.2
2016-May-26 05:17N 41°21' E 002°10'0 0.0
2016-May-26 00:21N 41°21' E 002°10'0 0.0
2016-May-25 22:08N 41°21' E 002°10'0 0.0
2016-May-25 21:20N 41°21' E 002°10'0 0.0
2016-May-25 13:16N 41°21' E 002°10'0 0.0
2016-May-25 09:20N 41°21' E 002°10'3 3.5
2016-May-25 08:33N 41°18' E 002°11'9 8.7
2016-May-25 07:33N 41°10' E 002°09'1312.1
2016-May-25 06:30N 40°60' E 001°58'1212.8
2016-May-25 05:34N 40°50' E 001°49'1312.5
2016-May-25 04:33N 40°39' E 001°40'1212.1
2016-May-25 03:33N 40°29' E 001°32'1212.5
2016-May-25 02:33N 40°19' E 001°22'1312.6
2016-May-25 01:33N 40°08' E 001°13'1313.3
2016-May-25 00:33N 39°57' E 001°03'6812.6
2016-May-24 19:12N 39°26' W 000°15'3 4.9
2016-May-24 18:33N 39°27' W 000°19'0 0.0
2016-May-23 20:29N 39°27' W 000°19'0 0.0
2016-May-23 18:17N 39°27' W 000°19'1 1.5
2016-May-23 17:27N 39°26' W 000°18'3 3.6
2016-May-23 16:29N 39°25' W 000°14'7 0.3
2016-May-22 18:27N 39°24' W 000°05'60 8.7
2016-May-22 11:33N 39°25' E 001°13'1312.6
2016-May-22 10:33N 39°25' E 001°30'1513.2
2016-May-22 09:24N 39°18' E 001°47'1213.8
2016-May-22 08:33N 39°13' E 002°00'1413.8
2016-May-22 07:33N 39°06' E 002°16'2018.2
2016-May-22 06:28N 38°58' E 002°39'1920.6
2016-May-22 05:33N 38°55' E 003°03'2120.7
2016-May-22 04:33N 38°51' E 003°29'2120.7
2016-May-22 03:33N 38°47' E 003°55'2120.6
2016-May-22 02:33N 38°43' E 004°21'19621.1
2016-May-21 17:16N 38°05' E 008°26'1520.4
2016-May-21 16:33N 38°02' E 008°45'2020.4
2016-May-21 15:34N 37°58' E 009°09'2020.0
2016-May-21 14:33N 37°52' E 009°34'21519.4
2016-May-21 03:31N 36°13' E 013°33'1919.7
2016-May-21 02:32N 36°02' E 013°53'1919.6
2016-May-21 01:33N 35°52' E 014°12'1817.0
2016-May-21 00:28N 35°45' E 014°33'4 0.4
2016-May-20 15:05N 35°49' E 014°32'0 0.0
2016-May-20 07:32N 35°49' E 014°32'  
Track history (hours):
 
Tides and Currents Weather Stations Pressure Air Temp Water Temp Dewpoint Dewpoint Depression Visibility Wind Speed Wind Dir Waves Ship Positions

CMA CGM Musca

Last reported at 2016-May-30 06:21 UTC. Time now 2016-May-30 08:44 UTC.
Position N 37°53' E 009°60'.

Length 347 m; draft 13.7 m.

Type: Ship (hazmat cat A). MMSI: 235070914.

Date/timePositionNaut miles runAvg speedWind from/ knotsBaromVisibWave heightAir tempDewpointWater temp
2016-May-30 06:21N 37°53' E 009°60'37720.0
2016-May-29 11:33N 42°59' E 005°10'2020.3
2016-May-29 10:33N 43°18' E 004°59'9 9.4
2016-May-29 09:33N 43°25' E 004°51'0 0.1
2016-May-29 08:33N 43°25' E 004°51'0 0.0
2016-May-29 07:33N 43°25' E 004°51'0 0.0
2016-May-29 06:32N 43°25' E 004°51'0 0.0
2016-May-29 05:32N 43°25' E 004°51'0 0.0
2016-May-29 04:23N 43°25' E 004°51'0 0.0
2016-May-29 03:28N 43°25' E 004°51'0 0.0
2016-May-29 02:31N 43°25' E 004°51'0 0.0
2016-May-29 01:33N 43°25' E 004°51'0 0.0
2016-May-29 00:33N 43°25' E 004°51'0 0.0
2016-May-28 22:26N 43°25' E 004°51'0 0.0
2016-May-28 16:11N 43°25' E 004°51'0 0.0
2016-May-28 15:29N 43°25' E 004°51'0 0.0
2016-May-28 14:31N 43°25' E 004°51'0 0.0
2016-May-28 12:16N 43°25' E 004°51'0 0.0
2016-May-28 11:33N 43°25' E 004°51'0 0.0
2016-May-28 10:33N 43°25' E 004°51'0 0.0
2016-May-28 09:32N 43°25' E 004°51'0 0.0
2016-May-28 08:32N 43°25' E 004°51'0 0.0
2016-May-28 07:31N 43°25' E 004°51'0 0.0
2016-May-28 06:31N 43°25' E 004°51'1 0.7
2016-May-28 05:33N 43°24' E 004°51'8 7.7
2016-May-28 04:33N 43°19' E 004°59'9 9.3
2016-May-28 03:33N 43°10' E 005°03'1513.6
2016-May-28 02:29N 42°57' E 004°55'14 1.1
2016-May-27 13:05N 43°02' E 004°37'2 1.0
2016-May-27 11:10N 43°01' E 004°39'0 0.6
2016-May-27 10:32N 43°01' E 004°39'1 0.3
2016-May-27 08:29N 43°00' E 004°39'0 0.3
2016-May-27 07:32N 42°60' E 004°39'0 0.1
2016-May-27 03:27N 42°60' E 004°38'3 0.7
2016-May-26 23:31N 43°00' E 004°42'1010.1
2016-May-26 22:30N 43°03' E 004°55'1312.6
2016-May-26 21:28N 42°52' E 004°46'3712.8
2016-May-26 18:33N 42°21' E 004°18'1313.0
2016-May-26 17:33N 42°10' E 004°08'1312.8
2016-May-26 16:33N 41°59' E 003°58'1312.8
2016-May-26 15:33N 41°51' E 003°45'1212.3
2016-May-26 14:33N 41°43' E 003°33'1312.1
2016-May-26 13:29N 41°36' E 003°19'1712.0
2016-May-26 12:05N 41°28' E 002°59'911.9
2016-May-26 11:22N 41°25' E 002°48'1012.1
2016-May-26 10:33N 41°22' E 002°36'1212.4
2016-May-26 09:33N 41°18' E 002°20'8 7.6
2016-May-26 08:32N 41°20' E 002°10'1 0.2
2016-May-26 05:17N 41°21' E 002°10'0 0.0
2016-May-26 00:21N 41°21' E 002°10'0 0.0
2016-May-25 22:08N 41°21' E 002°10'0 0.0
2016-May-25 21:20N 41°21' E 002°10'0 0.0
2016-May-25 13:16N 41°21' E 002°10'0 0.0
2016-May-25 09:20N 41°21' E 002°10'3 3.5
2016-May-25 08:33N 41°18' E 002°11'9 8.7
2016-May-25 07:33N 41°10' E 002°09'1312.1
2016-May-25 06:30N 40°60' E 001°58'1212.8
2016-May-25 05:34N 40°50' E 001°49'1312.5
2016-May-25 04:33N 40°39' E 001°40'1212.1
2016-May-25 03:33N 40°29' E 001°32'1212.5
2016-May-25 02:33N 40°19' E 001°22'1312.6
2016-May-25 01:33N 40°08' E 001°13'1313.3
2016-May-25 00:33N 39°57' E 001°03'6812.6
2016-May-24 19:12N 39°26' W 000°15'3 4.9
2016-May-24 18:33N 39°27' W 000°19'0 0.0
2016-May-23 20:29N 39°27' W 000°19'0 0.0
2016-May-23 18:17N 39°27' W 000°19'1 1.5
2016-May-23 17:27N 39°26' W 000°18'3 3.6
2016-May-23 16:29N 39°25' W 000°14'7 0.3
2016-May-22 18:27N 39°24' W 000°05'60 8.7
2016-May-22 11:33N 39°25' E 001°13'1312.6
2016-May-22 10:33N 39°25' E 001°30'1513.2
2016-May-22 09:24N 39°18' E 001°47'1213.8
2016-May-22 08:33N 39°13' E 002°00'1413.8
2016-May-22 07:33N 39°06' E 002°16'2018.2
2016-May-22 06:28N 38°58' E 002°39'1920.6
2016-May-22 05:33N 38°55' E 003°03'2120.7
2016-May-22 04:33N 38°51' E 003°29'2120.7
2016-May-22 03:33N 38°47' E 003°55'2120.6
2016-May-22 02:33N 38°43' E 004°21'19621.1
2016-May-21 17:16N 38°05' E 008°26'1520.4
2016-May-21 16:33N 38°02' E 008°45'2020.4
2016-May-21 15:34N 37°58' E 009°09'2020.0
2016-May-21 14:33N 37°52' E 009°34'21519.4
2016-May-21 03:31N 36°13' E 013°33'1919.7
2016-May-21 02:32N 36°02' E 013°53'1919.6
2016-May-21 01:33N 35°52' E 014°12'1817.0
2016-May-21 00:28N 35°45' E 014°33'4 0.4
2016-May-20 15:05N 35°49' E 014°32'0 0.0
2016-May-20 07:32N 35°49' E 014°32'  

Dump ship's entire track history